默认 日期 大小 文件数 浏览量 最新下载 xml
brass磁力链接相关资源由用户搜索指令自动获取,结果来源于网络,本站不存储任何资料,亦不承担任何责任,请于24小时内删除,搜索到2956个磁力,用时3ms。
    ... , "261826": 261826}, "Thenatan Brass v1.0.0": {"Thenatan.Brass.v1.0.0 ... .0.0.exe": 123655352, "Brass Samples.rar": 84466580, "Brass - Manual.pdf": 7567863 ...
创建时间: 2023-02-23 23:35:18 大小:211.2 MB 文件数量:15 热度:3 最近下载:2025-02-17 18:06:03
    ... FIX-Readme.txt": 164, "Brass Tactics Fix.7z": 12422668, "[ ... VRP Repacks] - Brass Tactics.7z.001": 1048576000, "[ ... VRP Repacks] - Brass Tactics.7z.002": 1048576000, "[ ... VRP Repacks] - Brass Tactics.7z.003": 1048576000, "[ ...
创建时间: 2023-02-26 08:43:00 大小:3.82 GB 文件数量:9 热度:5 最近下载:2025-02-24 02:09:02
    {"The Unthanks With Brighouse And Rastrick Brass Band-Diversions Volume 2 [Full Album] 2012 Release.rar": 79817872}
创建时间: 2023-02-28 08:04:52 大小:76.12 MB 文件数量:1 热度:5 最近下载:2025-09-17 17:25:07
    ... .srt": 73551, "Senso '45 Tinto Brass.Spa.srt": 70183, "Senso_45-[cdcovers_cc ... , "Senso '45-Balck.Angel.Tinto.Brass.ITA.DVDRip.XViD.PARENTE.2002 ...
创建时间: 2023-02-28 08:29:31 大小:986.9 MB 文件数量:14 热度:9 最近下载:2025-08-01 19:41:08
    {"cover.jpg": 254281, "foo_dr.txt": 1263, "01. Africa.flac": 187213232, "06. Africa.flac": 152666006, "08. Africa.flac": 184789133, "03. Blues Minor.flac": 88043718, "02. Greensleeves.flac": 114706810, "07. Greensleeves.flac": 122405199, "05. The Damned ...
创建时间: 2023-03-01 06:23:54 大小:970.75 MB 文件数量:10 热度:3 最近下载:2025-02-17 09:11:02
    {"cover.jpg": 14447, "Fallo!.avi": 1129019392, "cover_1.jpg": 328386, "cover_2.jpg": 196311, "cover_3.jpg": 193205, "Fallo!.avi.jpg": 948467}
创建时间: 2023-03-03 21:47:30 大小:1.05 GB 文件数量:6 热度:7 最近下载:2025-10-05 00:57:01
    {"Relaxxxed.16.04.30.Barra.Brass.XXX.1080p.MP4-KTR.mp4": 1991484152}
创建时间: 2023-03-06 09:54:06 大小:1.85 GB 文件数量:1 热度:7 最近下载:2025-02-09 08:13:11
    {"22430 - Miya Stone_480p.mp4": 164495875}
创建时间: 2023-03-08 17:35:42 大小:156.88 MB 文件数量:1 热度:4 最近下载:2025-01-14 09:21:05
    {"labels": {"side 1.jpg": 75982, "side 2.jpg": 66931}, "front.jpg": 338758, "foo_dr.txt": 1086, "04 - Love.flac": 148795679, "06 - Dance.flac": 228440655, "01 - Movin'.flac": 194594079, "02 - Peekin'.flac": 88849382, "05 - Talkin'.flac": 90528823, "03 - ...
创建时间: 2023-03-11 19:35:31 大小:897.91 MB 文件数量:10 热度:3 最近下载:2025-01-17 09:17:06
    {"poster.jpg": 38163, "screens.jpg": 147148, "RARBG.com.txt": 33, "TonightsGirlfriend.Alura.Jenson.And.Joey.Brass.NEW.Naughty.America.August.04.2015.mp4": 669213822}
创建时间: 2023-03-21 05:32:14 大小:638.39 MB 文件数量:4 热度:14 最近下载:2025-01-19 07:31:02
    {"Hide-Your-IP-using-FiveStarVPN.com.txt": 91, "Torrent-Downloaded-from-ExtraTorrent.cc.txt": 176, "sdbb.16.06.28.vanessa.nathaly.cherie.and.barra.brass[N1C].mp4": 1288629457}
创建时间: 2023-03-21 20:49:46 大小:1.2 GB 文件数量:3 热度:4 最近下载:2025-05-15 17:40:01
    {"爱情.jpg": 173381, "爱情.mkv": 2220676995, "过错.jpg": 221335, "过错.mkv": 2057503825, "红辣椒.jpg": 740490, "红辣椒.mkv": 2375677897, "黑天使.jpg": 212788, "黑天使.mkv": 2835218427, "偷窥狂人.jpg": 301664, "偷窥狂人.mkv": 2509994114, "厨房春光.jpg": 56667, "厨房春光.mkv": 327862502, "欲望之翼 ...
创建时间: 2023-03-22 05:58:46 大小:35.66 GB 文件数量:33 热度:141 最近下载:2025-10-04 17:33:06
    ... , "Kinetic Brass - TUBAS.nki": 956639, "Kinetic Brass - TRUMPETS.nki": 956715, "Kinetic Brass - TROMBONES ... .nki": 956830, "Kinetic Brass - FRENCH ...
创建时间: 2023-03-23 07:13:30 大小:10.43 GB 文件数量:22471 热度:3 最近下载:2025-02-03 03:22:05
    {"Sample+Screen": {"m1.jpg": 63299, "DvD.png": 393287, "1DIR.jpg": 40668, "name.jpg": 224240, "imagine.gif": 2099287, "Bitmap-4.jpg": 38870, "Bitmap-6.jpg": 147019, "Bitmap-8.jpg": 41691, "Bitmap-9.jpg": 40203, "VTS_01_3.VOB": 14710784, "Bitmap-10.jpg": ...
创建时间: 2023-03-23 19:34:29 大小:4.36 GB 文件数量:21 热度:5 最近下载:2025-09-22 22:43:03
    {"Brass.Target.1978.HDTV.1080p.DD2.0.x264.2xHUN-GuRF.mkv": 5303450697, "Brass.Target.1978.HDTV.1080p.DD2.0.x264.2xHUN-GuRF.nfo": 3605, "Brass.Target.1978.HDTV.1080p.DD2.0.x264.2xHUN-GuRF.sample.mkv": 101903809}
创建时间: 2023-03-23 22:42:26 大小:5.03 GB 文件数量:3 热度:3 最近下载:2025-01-25 23:23:02
    {"Brass.Birmingham.Build.7534458.rar": 394420804}
创建时间: 2023-04-01 18:19:08 大小:376.15 MB 文件数量:1 热度:3 最近下载:2025-02-09 08:09:08
    {"[EroticaMovie] P.O. Box Tinto Brass XXX (1995) (1080p HEVC) [GhostFreakXX].mp4": 2259991934}
创建时间: 2023-04-01 20:42:55 大小:2.1 GB 文件数量:1 热度:19 最近下载:2025-09-18 19:56:05
    ... , Op. 50 (Arr. for Brass by Marc Ullrich).flac": 83721793 ... Walked In (Arr. for Brass by Stephen Bulla).flac": 57425769 ... Pasodoble Torero) [Arr. for Brass by Jay Lichtmann].flac": 24082029 ... Die Bankelsangerlieder (Arr. for Brass by Gerhard Hafner).flac": ...
创建时间: 2023-04-09 23:55:42 大小:542.05 MB 文件数量:11 热度:3 最近下载:2025-02-14 22:13:02
    {"1999.Sogno_[torrents.ru].avi": 1564399616, "2003.Fallo!_[torrents.ru].avi": 1565827072, "1985.Miranda_[torrents.ru].avi": 1565483008, "1991.Paprika_[torrents.ru].avi": 1566844928, "1998.Monella_[torrents.ru].avi": 1565548544, "1979.Caligula_[torrents.ru ...
创建时间: 2023-04-10 05:50:57 大小:26.24 GB 文件数量:19 热度:5 最近下载:2025-03-10 16:52:03
    {"folder.jpg": 593298, "Digital Booklet.pdf": 1043646, "03 - in O carna.flac": 138570251, "02 - Omnes Gentes.flac": 53894822, "04 - Over the rainbow.flac": 91723200, "01 - Fanfare for the common man.flac": 56323704, "05 - Wiener Philharmonic fanfare.flac": ...
创建时间: 2023-04-13 21:06:57 大小:665.08 MB 文件数量:11 热度:7 最近下载:2025-09-18 23:59:03